Time;durP1;ratioP1;P1;durP2;ratioP2;P2;SDS_P1;SDS_P2;PMS_P1;PMS_P2;Temp;Humidity;BMP_temperature;BMP_pressure;BME280_temperature;BME280_humidity;BME280_pressure;Samples;Min_cycle;Max_cycle;Signal;HPM_P1;HPM_P2
2022/08/16 00:01:22;;;;;;;4.95;3.55;;;;;;;27.51;49.42;100295.44;5050432;28;20048;-76
2022/08/16 00:03:52;;;;;;;5.90;3.85;;;;;;;27.51;49.49;100306.31;5075170;28;20051;-76
2022/08/16 00:06:20;;;;;;;5.78;4.30;;;;;;;27.52;49.59;100308.00;5074741;28;20036;-77
2022/08/16 00:08:48;;;;;;;5.85;3.70;;;;;;;27.52;49.71;100308.00;5073773;28;20053;-77
2022/08/16 00:11:20;;;;;;;5.45;3.70;;;;;;;27.52;49.45;100305.28;5074963;28;20044;-77
2022/08/16 00:13:49;;;;;;;6.72;3.80;;;;;;;27.51;49.53;100309.03;5074096;28;20052;-77
2022/08/16 00:16:23;;;;;;;7.95;4.57;;;;;;;27.51;49.60;100311.75;5074502;28;20036;-77
2022/08/16 00:19:13;;;;;;;5.82;3.90;;;;;;;27.52;49.61;100312.59;5074754;28;20404;-77
2022/08/16 00:21:42;;;;;;;8.30;3.55;;;;;;;27.52;49.67;100312.59;5074523;28;20040;-76
2022/08/16 00:24:10;;;;;;;6.00;3.92;;;;;;;27.52;49.68;100312.59;5074814;28;20049;-76
2022/08/16 00:26:43;;;;;;;8.77;4.65;;;;;;;27.52;49.79;100323.47;5074922;28;20403;-76
2022/08/16 00:29:14;;;;;;;4.90;3.85;;;;;;;27.52;49.60;100334.34;5062133;28;20045;-76
2022/08/16 00:31:48;;;;;;;9.13;4.25;;;;;;;27.52;49.67;100329.75;5053925;28;20497;-76
2022/08/16 00:34:32;;;;;;;8.10;4.28;;;;;;;27.52;49.32;100337.91;5034949;28;20052;-76
2022/08/16 00:37:25;;;;;;;5.75;4.43;;;;;;;27.52;49.66;100328.91;5034405;28;20041;-76
2022/08/16 00:40:17;;;;;;;4.93;3.75;;;;;;;27.53;49.52;100339.56;5034465;28;20053;-76
2022/08/16 00:43:06;;;;;;;5.80;3.83;;;;;;;27.51;49.92;100333.50;5032878;28;20061;-76
2022/08/16 00:46:05;;;;;;;5.30;4.10;;;;;;;27.52;49.68;100329.75;5034287;28;20045;-76
2022/08/16 00:48:53;;;;;;;8.45;4.47;;;;;;;27.52;49.96;100327.03;5033143;28;20405;-76
2022/08/16 00:51:25;;;;;;;8.27;4.65;;;;;;;27.53;50.30;100330.59;5034313;28;20168;-76
2022/08/16 00:53:55;;;;;;;6.35;4.35;;;;;;;27.52;50.09;100328.91;5033100;28;20060;-76
2022/08/16 00:56:28;;;;;;;5.50;4.28;;;;;;;27.51;50.17;100325.34;5050006;28;20057;-77
2022/08/16 00:59:19;;;;;;;6.53;4.05;;;;;;;27.51;50.01;100325.34;5032925;28;20065;-77
2022/08/16 01:01:50;;;;;;;6.65;4.15;;;;;;;27.51;49.79;100319.91;5034184;28;20044;-77
2022/08/16 01:04:23;;;;;;;4.20;3.80;;;;;;;27.52;50.18;100327.03;5032508;28;20057;-77
2022/08/16 01:07:00;;;;;;;4.80;4.10;;;;;;;27.52;50.07;100326.19;5032728;28;20057;-77
2022/08/16 01:09:37;;;;;;;5.20;4.10;;;;;;;27.51;50.06;100329.97;5032456;28;20053;-77
2022/08/16 01:12:10;;;;;;;5.05;4.55;;;;;;;27.51;49.85;100319.09;5034371;28;20049;-77
2022/08/16 01:14:57;;;;;;;5.13;4.22;;;;;;;27.51;49.99;100310.94;5032676;28;20507;-77
2022/08/16 01:17:27;;;;;;;6.68;4.25;;;;;;;27.50;49.83;100310.06;5032347;28;20050;-77
2022/08/16 01:20:06;;;;;;;4.70;4.00;;;;;;;27.50;50.06;100310.06;5032175;28;20049;-76
2022/08/16 01:23:09;;;;;;;4.30;3.88;;;;;;;27.51;49.73;100311.75;5052564;28;20111;-75
2022/08/16 01:25:42;;;;;;;4.20;3.65;;;;;;;27.51;49.61;100308.22;5055699;28;20053;-76
2022/08/16 01:28:16;;;;;;;6.43;3.55;;;;;;;27.51;50.23;100313.66;5088322;28;20057;-77
2022/08/16 01:30:52;;;;;;;4.75;3.70;;;;;;;27.50;50.28;100318.22;5046759;28;20060;-77
2022/08/16 01:33:21;;;;;;;4.43;3.53;;;;;;;27.50;50.21;100312.78;5043337;28;20064;-77
2022/08/16 01:35:55;;;;;;;4.38;3.90;;;;;;;27.50;49.97;100318.22;5051744;28;20053;-76
2022/08/16 01:38:34;;;;;;;4.15;3.53;;;;;;;27.50;50.20;100326.38;5051876;28;20049;-76
2022/08/16 01:41:09;;;;;;;5.47;3.65;;;;;;;27.49;49.91;100327.41;5051898;28;20060;-76
2022/08/16 01:43:39;;;;;;;4.20;3.38;;;;;;;27.49;50.39;100332.03;5068691;28;20060;-76
2022/08/16 01:46:22;;;;;;;5.72;3.97;;;;;;;27.49;50.26;100337.47;5051657;28;20400;-76
2022/08/16 01:49:32;;;;;;;5.32;3.40;;;;;;;27.48;50.29;100342.06;5052819;28;20505;-76
2022/08/16 01:52:19;;;;;;;4.85;3.45;;;;;;;27.47;49.98;100343.09;5052290;28;20064;-76
2022/08/16 01:55:09;;;;;;;3.97;3.58;;;;;;;27.47;50.28;100351.25;5052025;28;20048;-76
2022/08/16 01:57:37;;;;;;;4.90;3.20;;;;;;;27.48;50.45;100355.66;5051649;28;20052;-76
2022/08/16 02:00:11;;;;;;;4.35;3.67;;;;;;;27.47;50.07;100364.84;5068266;28;20190;-76
2022/08/16 02:02:46;;;;;;;4.68;3.80;;;;;;;27.47;50.08;100367.56;5065613;28;20063;-76
2022/08/16 02:05:20;;;;;;;5.82;4.00;;;;;;;27.48;50.16;100369.25;5071859;28;20048;-76
2022/08/16 02:07:50;;;;;;;6.07;4.07;;;;;;;27.47;49.79;100373.00;5071542;28;20045;-76
2022/08/16 02:10:20;;;;;;;3.90;3.60;;;;;;;27.47;49.99;100364.84;5072138;28;20059;-76
2022/08/16 02:12:52;;;;;;;4.65;3.75;;;;;;;27.48;49.94;100371.97;5071580;28;20056;-76
2022/08/16 02:15:28;;;;;;;6.95;4.00;;;;;;;27.47;50.04;100373.00;5071104;28;20056;-76
2022/08/16 02:17:58;;;;;;;5.60;3.33;;;;;;;27.46;49.90;100371.31;5072042;28;20130;-76
2022/08/16 02:20:35;;;;;;;4.68;3.42;;;;;;;27.47;49.76;100364.84;5071523;28;20064;-76
2022/08/16 02:23:09;;;;;;;3.63;3.05;;;;;;;27.46;50.20;100368.59;5072798;28;20392;-76
2022/08/16 02:25:36;;;;;;;4.57;3.58;;;;;;;27.46;50.01;100368.59;5071636;28;20059;-76
2022/08/16 02:28:23;;;;;;;5.28;4.00;;;;;;;27.47;50.04;100373.00;5071662;28;20044;-76
2022/08/16 02:30:52;;;;;;;5.00;3.78;;;;;;;27.47;49.71;100364.84;5066711;28;20045;-76
2022/08/16 02:33:21;;;;;;;4.60;3.42;;;;;;;27.47;49.96;100350.41;5050458;28;20056;-77
2022/08/16 02:35:52;;;;;;;4.95;3.65;;;;;;;27.46;50.15;100363.16;5051863;28;20049;-76
2022/08/16 02:38:28;;;;;;;4.60;3.45;;;;;;;27.47;49.98;100364.00;5037919;28;20053;-76
2022/08/16 02:41:01;;;;;;;4.95;3.97;;;;;;;27.46;50.22;100368.59;5055763;28;20049;-76
2022/08/16 02:43:35;;;;;;;3.53;3.22;;;;;;;27.46;49.99;100371.31;5055605;28;20049;-76
2022/08/16 02:46:06;;;;;;;3.67;3.30;;;;;;;27.46;50.06;100367.75;5039075;28;20041;-76
2022/08/16 02:48:37;;;;;;;3.75;3.45;;;;;;;27.46;50.17;100365.88;5055202;28;20045;-77
2022/08/16 02:51:08;;;;;;;4.53;3.72;;;;;;;27.46;50.09;100368.59;5055535;28;20044;-76
2022/08/16 02:53:43;;;;;;;4.82;3.78;;;;;;;27.45;50.18;100364.19;5055185;28;20053;-76
2022/08/16 02:56:13;;;;;;;4.72;3.70;;;;;;;27.45;50.03;100372.34;5039160;28;20056;-76
2022/08/16 02:58:49;;;;;;;4.03;3.50;;;;;;;27.45;50.04;100369.63;5055388;28;20060;-76
2022/08/16 03:01:24;;;;;;;4.00;3.35;;;;;;;27.45;49.96;100379.66;5053897;28;20055;-77
2022/08/16 03:04:12;;;;;;;3.70;3.38;;;;;;;27.44;50.16;100370.69;5054987;28;20053;-77
2022/08/16 03:07:00;;;;;;;4.90;3.55;;;;;;;27.45;50.21;100383.22;5054902;28;20059;-77
2022/08/16 03:09:40;;;;;;;4.13;3.10;;;;;;;27.46;50.04;100384.06;5055286;28;20060;-77
2022/08/16 03:12:13;;;;;;;4.90;3.30;;;;;;;27.44;50.05;100383.44;5054766;28;20512;-75
2022/08/16 03:14:46;;;;;;;5.20;3.80;;;;;;;27.45;50.24;100394.09;5054749;28;20049;-78
2022/08/16 03:17:16;;;;;;;8.38;3.83;;;;;;;27.45;50.34;100387.81;5054487;28;20059;-76
2022/08/16 03:19:45;;;;;;;3.60;3.15;;;;;;;27.44;50.26;100386.16;5054975;28;20710;-76
2022/08/16 03:22:26;;;;;;;3.85;3.40;;;;;;;27.43;50.02;100396.19;5054809;28;20408;-77
2022/08/16 03:25:07;;;;;;;5.82;3.30;;;;;;;27.41;50.09;100392.81;5074519;28;20052;-75
2022/08/16 03:27:37;;;;;;;3.63;3.05;;;;;;;27.41;50.32;100402.84;5074499;28;20055;-76
2022/08/16 03:30:14;;;;;;;3.78;3.17;;;;;;;27.38;50.19;100419.53;5074468;28;20056;-75
2022/08/16 03:33:05;;;;;;;4.10;3.35;;;;;;;27.37;50.01;100418.69;5053987;28;20052;-75
2022/08/16 03:35:40;;;;;;;3.42;3.13;;;;;;;27.34;50.42;100422.63;5038815;28;20048;-76
2022/08/16 03:38:22;;;;;;;4.63;3.88;;;;;;;27.33;50.04;100431.00;5054774;28;20060;-76
2022/08/16 03:41:14;;;;;;;4.65;3.38;;;;;;;27.34;50.16;100443.53;5054355;28;20049;-75
2022/08/16 03:43:58;;;;;;;4.68;3.15;;;;;;;27.32;50.40;100426.59;5054045;28;20056;-75
2022/08/16 03:46:30;;;;;;;5.05;3.33;;;;;;;27.30;50.33;100428.66;5054455;28;20056;-75
2022/08/16 03:49:20;;;;;;;5.32;3.97;;;;;;;27.31;50.77;100430.38;5053093;28;20045;-75
2022/08/16 03:51:51;;;;;;;4.05;3.45;;;;;;;27.30;50.37;100429.50;5054443;28;20131;-75
2022/08/16 03:54:28;;;;;;;3.78;3.30;;;;;;;27.29;50.43;100437.84;5055162;28;20049;-75
2022/08/16 03:56:57;;;;;;;4.15;3.28;;;;;;;27.28;50.41;100430.75;5053950;28;20075;-75
2022/08/16 03:59:30;;;;;;;;;;;;;;;27.28;50.57;100433.47;5054021;28;20057;-75
2022/08/16 04:02:01;;;;;;;3.97;2.88;;;;;;;27.27;50.40;100437.22;5055603;28;19921;-75
2022/08/16 04:04:39;;;;;;;6.45;3.45;;;;;;;27.27;50.52;100450.81;5074601;28;20381;-75
2022/08/16 04:07:07;;;;;;;4.85;3.60;;;;;;;27.26;50.64;100444.50;5073151;28;20053;-75
2022/08/16 04:09:39;;;;;;;5.68;3.50;;;;;;;27.25;50.48;100434.69;5075233;28;20044;-75
2022/08/16 04:12:09;;;;;;;4.80;3.75;;;;;;;27.25;50.44;100437.41;5073538;28;20057;-75
2022/08/16 04:14:58;;;;;;;5.22;3.78;;;;;;;27.25;50.67;100447.44;5060285;28;20056;-75
2022/08/16 04:17:26;;;;;;;4.10;3.55;;;;;;;27.24;50.64;100446.59;5073314;28;20052;-75
2022/08/16 04:19:56;;;;;;;4.80;3.90;;;;;;;27.23;50.57;100438.66;5073644;28;20496;-76
2022/08/16 04:22:26;;;;;;;4.82;3.40;;;;;;;27.22;50.71;100443.22;5075087;28;20052;-75
2022/08/16 04:25:00;;;;;;;3.92;3.13;;;;;;;27.21;50.39;100440.69;5073824;28;20057;-76
2022/08/16 04:27:32;;;;;;;4.88;4.13;;;;;;;27.20;50.64;100434.44;5073361;28;20051;-75
2022/08/16 04:30:04;;;;;;;5.50;3.70;;;;;;;27.20;50.33;100433.59;5073432;28;20066;-75
2022/08/16 04:32:43;;;;;;;4.40;3.33;;;;;;;27.20;50.47;100444.47;5062737;28;20520;-75
2022/08/16 04:35:20;;;;;;;4.75;3.65;;;;;;;27.19;50.37;100448.22;5051814;28;20492;-75
2022/08/16 04:37:50;;;;;;;4.90;3.33;;;;;;;27.18;50.49;100449.22;5053159;28;20044;-75
2022/08/16 04:40:26;;;;;;;4.93;3.17;;;;;;;27.17;50.19;100447.56;5052852;28;20381;-75
2022/08/16 04:42:56;;;;;;;4.97;3.17;;;;;;;27.16;50.28;100449.44;5052916;28;20524;-75
2022/08/16 04:45:26;;;;;;;4.85;3.65;;;;;;;27.16;50.29;100457.59;5053056;28;20052;-75
2022/08/16 04:48:09;;;;;;;4.47;3.67;;;;;;;27.16;50.40;100454.03;5037993;28;20390;-75
2022/08/16 04:50:51;;;;;;;4.80;3.60;;;;;;;27.14;50.42;100456.94;5053362;28;20053;-75
2022/08/16 04:53:27;;;;;;;3.83;3.42;;;;;;;27.15;50.50;100468.66;5054319;28;20048;-75
2022/08/16 04:55:54;;;;;;;5.28;3.83;;;;;;;27.14;50.47;100456.09;5036581;28;20400;-75
2022/08/16 04:58:24;;;;;;;5.22;3.63;;;;;;;27.14;50.52;100456.09;5053011;28;20045;-75
2022/08/16 05:01:12;;;;;;;3.80;3.38;;;;;;;27.14;50.42;100465.06;5038898;28;20520;-75
2022/08/16 05:03:43;;;;;;;4.85;3.10;;;;;;;27.13;50.62;100462.56;5054087;28;20041;-75
2022/08/16 05:06:39;;;;;;;4.63;3.22;;;;;;;27.14;50.52;100469.69;5052539;28;20052;-75
2022/08/16 05:09:25;;;;;;;3.42;2.92;;;;;;;27.11;50.46;100474.47;5052899;28;20049;-75
2022/08/16 05:11:55;;;;;;;4.60;3.38;;;;;;;27.11;50.50;100474.47;5052465;28;20049;-75
2022/08/16 05:14:25;;;;;;;5.63;4.07;;;;;;;27.10;50.83;100472.81;5052441;28;20412;-75
2022/08/16 05:17:14;;;;;;;4.18;3.78;;;;;;;27.07;50.57;100473.16;5039459;28;20049;-75
2022/08/16 05:19:42;;;;;;;4.78;3.80;;;;;;;27.07;50.66;100477.75;5052371;28;20409;-75
2022/08/16 05:22:25;;;;;;;4.72;3.42;;;;;;;27.06;50.73;100474.19;5052057;28;20060;-75
2022/08/16 05:24:56;;;;;;;3.80;3.30;;;;;;;27.04;50.75;100476.25;5061026;28;20048;-76
2022/08/16 05:27:23;;;;;;;3.85;3.20;;;;;;;27.05;50.89;100477.91;5072401;28;20053;-75
2022/08/16 05:29:52;;;;;;;5.10;3.40;;;;;;;27.05;50.71;100483.34;5071730;28;20057;-75
2022/08/16 05:32:32;;;;;;;3.97;3.58;;;;;;;27.06;50.95;100481.47;5067602;28;20052;-75
2022/08/16 05:35:14;;;;;;;3.93;3.50;;;;;;;27.05;50.67;100486.06;5048405;28;20040;-75
2022/08/16 05:38:07;;;;;;;4.30;3.85;;;;;;;27.06;50.54;100487.78;5039515;28;20505;-75
2022/08/16 05:40:58;;;;;;;4.43;3.53;;;;;;;27.06;50.69;100485.06;5038517;28;20063;-75
2022/08/16 05:43:33;;;;;;;4.85;3.53;;;;;;;27.06;50.65;100485.06;5051783;28;20075;-75
2022/08/16 05:46:19;;;;;;;5.47;3.80;;;;;;;27.06;50.47;100482.34;5052159;28;20169;-75
2022/08/16 05:48:59;;;;;;;5.82;3.17;;;;;;;27.07;50.52;100478.59;5052366;28;20052;-75
2022/08/16 05:51:38;;;;;;;5.82;3.63;;;;;;;27.07;50.53;100475.03;5052029;28;20504;-75
2022/08/16 05:54:10;;;;;;;3.53;3.15;;;;;;;27.06;50.59;100482.34;5051920;28;20508;-76
2022/08/16 05:56:41;;;;;;;5.35;3.50;;;;;;;27.08;50.82;100488.41;5035855;28;20060;-75
2022/08/16 05:59:09;;;;;;;3.80;3.35;;;;;;;27.07;50.83;100485.91;5051808;28;20500;-76
2022/08/16 06:01:39;;;;;;;4.38;3.60;;;;;;;27.08;50.76;100479.41;5051803;28;20056;-75
2022/08/16 06:04:09;;;;;;;4.15;3.42;;;;;;;27.08;51.49;100484.84;5063398;28;20055;-75
2022/08/16 06:06:46;;;;;;;4.43;3.60;;;;;;;27.09;51.03;100481.09;5072352;28;20500;-75
2022/08/16 06:09:25;;;;;;;4.30;3.20;;;;;;;27.08;50.57;100480.25;5071488;28;20051;-75
2022/08/16 06:12:13;;;;;;;4.53;3.30;;;;;;;27.08;50.75;100480.25;5071512;28;20049;-75
2022/08/16 06:15:03;;;;;;;4.63;3.67;;;;;;;27.05;50.41;100479.78;5075831;28;20056;-76
2022/08/16 06:17:37;;;;;;;5.90;3.88;;;;;;;27.02;50.33;100480.16;5076681;28;20049;-74
2022/08/16 06:20:16;;;;;;;7.00;3.60;;;;;;;26.96;50.79;100468.19;5075652;28;20542;-74
2022/08/16 06:22:54;;;;;;;4.15;3.38;;;;;;;26.94;50.84;100483.88;5075227;28;20075;-74
2022/08/16 06:25:40;;;;;;;4.63;3.47;;;;;;;26.92;50.87;100483.19;5075810;28;20056;-74
2022/08/16 06:28:09;;;;;;;6.65;3.50;;;;;;;26.89;51.19;100480.84;5075566;28;20048;-74
2022/08/16 06:30:57;;;;;;;4.80;4.00;;;;;;;26.81;51.36;100472.81;5061260;28;20059;-74
2022/08/16 06:33:28;;;;;;;5.93;3.63;;;;;;;26.78;51.40;100478.63;5063295;28;20531;-74
2022/08/16 06:36:10;;;;;;;3.95;3.42;;;;;;;26.78;51.63;100481.34;5051596;28;20049;-73
2022/08/16 06:38:40;;;;;;;3.53;3.20;;;;;;;26.76;51.53;100480.69;5055556;28;20128;-73
2022/08/16 06:41:42;;;;;;;4.45;3.75;;;;;;;26.73;51.50;100476.47;5056704;28;20045;-74
2022/08/16 06:44:21;;;;;;;4.68;3.60;;;;;;;26.74;51.51;100478.19;5055267;28;20056;-74
2022/08/16 06:46:55;;;;;;;5.25;4.20;;;;;;;26.78;51.40;100482.19;5055018;28;20509;-74
2022/08/16 06:49:23;;;;;;;3.95;3.47;;;;;;;26.78;51.39;100486.75;5038487;28;20049;-74
2022/08/16 06:51:51;;;;;;;5.18;3.65;;;;;;;26.78;51.55;100486.75;5055529;28;20053;-74
2022/08/16 06:54:26;;;;;;;4.70;3.42;;;;;;;26.78;51.87;100490.34;5055216;28;20056;-74
2022/08/16 06:56:54;;;;;;;5.80;4.22;;;;;;;26.74;51.86;100488.19;5054714;28;20052;-74
2022/08/16 06:59:22;;;;;;;6.05;4.40;;;;;;;26.72;51.70;100492.97;5054723;28;20056;-74
2022/08/16 07:01:56;;;;;;;4.57;3.25;;;;;;;26.73;51.55;100494.66;5055072;28;20045;-74
2022/08/16 07:04:27;;;;;;;7.50;4.40;;;;;;;26.74;52.14;100491.75;5056214;28;20052;-74
2022/08/16 07:07:06;;;;;;;5.40;4.22;;;;;;;26.73;51.89;100491.94;5054878;28;20048;-75
2022/08/16 07:09:37;;;;;;;4.82;4.18;;;;;;;26.70;52.01;100486.88;5054819;28;20056;-73
2022/08/16 07:12:07;;;;;;;4.45;3.58;;;;;;;26.67;52.42;100488.09;5055558;28;20045;-75
2022/08/16 07:14:39;;;;;;;5.85;4.03;;;;;;;26.66;52.25;100491.00;5054770;28;20056;-74
2022/08/16 07:17:09;;;;;;;7.35;3.70;;;;;;;26.66;52.22;100486.44;5054605;28;20064;-75
2022/08/16 07:19:47;;;;;;;7.75;4.38;;;;;;;26.67;52.45;100492.69;5054834;28;20053;-74
2022/08/16 07:22:43;;;;;;;5.65;4.22;;;;;;;26.66;52.71;100494.56;5054376;28;20052;-75
2022/08/16 07:25:36;;;;;;;6.40;5.15;;;;;;;26.60;52.66;100493.44;5061864;28;20053;-76
2022/08/16 07:28:12;;;;;;;6.93;4.70;;;;;;;26.56;52.96;100485.84;5058749;28;20074;-76
2022/08/16 07:30:51;;;;;;;5.05;4.22;;;;;;;26.55;53.02;100489.63;5074974;28;20059;-74
2022/08/16 07:33:33;;;;;;;7.07;4.78;;;;;;;26.54;53.22;100494.22;5062474;28;20061;-76
2022/08/16 07:36:26;;;;;;;6.18;4.97;;;;;;;26.53;52.92;100497.09;5047871;28;20042;-76
2022/08/16 07:38:57;;;;;;;6.45;4.22;;;;;;;26.48;53.26;100492.22;5051487;28;20045;-76
2022/08/16 07:41:27;;;;;;;5.68;4.45;;;;;;;26.50;53.12;100495.63;5054637;28;20049;-76
2022/08/16 07:43:59;;;;;;;6.60;4.33;;;;;;;26.50;53.35;100492.91;5070696;28;20064;-75
2022/08/16 07:46:29;;;;;;;6.65;4.25;;;;;;;26.51;53.43;100491.84;5054240;28;20293;-76
2022/08/16 07:49:16;;;;;;;6.50;4.38;;;;;;;26.49;53.55;100493.91;5054770;28;20049;-76
2022/08/16 07:51:45;;;;;;;5.68;4.20;;;;;;;26.50;53.43;100498.31;5071290;28;20044;-76
2022/08/16 07:54:14;;;;;;;8.43;4.10;;;;;;;26.52;53.14;100500.84;5054117;28;20049;-76
2022/08/16 07:57:00;;;;;;;5.07;4.20;;;;;;;26.55;53.27;100504.03;5054573;28;20420;-74
2022/08/16 07:59:29;;;;;;;7.80;4.20;;;;;;;26.60;53.41;100507.00;5071094;28;20052;-75
2022/08/16 08:02:15;;;;;;;7.32;4.55;;;;;;;26.62;53.14;100510.41;5053800;28;20416;-74
2022/08/16 08:04:52;;;;;;;7.38;4.25;;;;;;;26.62;53.14;100515.84;5063571;28;20048;-74
2022/08/16 08:07:21;;;;;;;8.90;4.40;;;;;;;26.61;52.96;100507.84;5073806;28;20060;-74
2022/08/16 08:09:55;;;;;;;7.07;4.30;;;;;;;26.62;53.19;100513.13;5058187;28;20040;-74
2022/08/16 08:12:23;;;;;;;6.55;4.07;;;;;;;26.64;52.94;100512.91;5073665;28;20052;-73
2022/08/16 08:14:59;;;;;;;6.00;3.92;;;;;;;26.70;52.96;100519.47;5074817;28;20052;-73
2022/08/16 08:17:28;;;;;;;8.50;4.20;;;;;;;26.75;52.85;100514.31;5073905;28;20056;-76
2022/08/16 08:20:21;;;;;;;6.90;4.30;;;;;;;26.77;52.57;100514.97;5073399;28;20061;-74
2022/08/16 08:22:58;;;;;;;5.28;3.90;;;;;;;26.77;52.77;100521.22;5073944;28;20047;-74
2022/08/16 08:25:29;;;;;;;5.80;4.15;;;;;;;26.78;52.71;100522.06;5073361;28;20067;-73
2022/08/16 08:28:17;;;;;;;7.82;4.38;;;;;;;26.74;52.22;100521.63;5073561;28;20056;-73
2022/08/16 08:30:47;;;;;;;8.48;4.72;;;;;;;26.70;52.15;100520.31;5073019;28;20040;-73
2022/08/16 08:33:27;;;;;;;8.25;4.38;;;;;;;26.69;52.38;100520.50;5046745;28;20052;-74
2022/08/16 08:36:00;;;;;;;5.70;3.47;;;;;;;26.70;52.49;100514.03;5052670;28;20053;-74
2022/08/16 08:38:31;;;;;;;6.68;3.95;;;;;;;26.73;52.30;100524.53;5049660;28;20041;-74
2022/08/16 08:41:14;;;;;;;6.78;3.92;;;;;;;26.75;52.36;100520.59;5069578;28;20493;-74
2022/08/16 08:43:49;;;;;;;6.97;3.83;;;;;;;26.76;52.36;100518.72;5053324;28;20068;-73
2022/08/16 08:46:20;;;;;;;6.57;3.72;;;;;;;26.78;52.51;100522.06;5052855;28;20064;-73
2022/08/16 08:48:55;;;;;;;5.80;4.22;;;;;;;26.77;52.26;100518.50;5052775;28;20060;-74
2022/08/16 08:51:27;;;;;;;6.90;4.03;;;;;;;26.78;52.27;100522.94;5052685;28;20485;-74
2022/08/16 08:54:07;;;;;;;6.25;4.05;;;;;;;26.78;52.34;100530.22;5054621;28;20041;-74
2022/08/16 08:56:40;;;;;;;7.15;3.83;;;;;;;26.79;52.43;100530.06;5052610;28;20049;-74
2022/08/16 08:59:38;;;;;;;7.30;3.60;;;;;;;26.83;52.35;100535.94;5052932;28;20070;-74
2022/08/16 09:02:10;;;;;;;7.85;4.53;;;;;;;26.84;52.34;100534.91;5037101;28;20051;-73
2022/08/16 09:04:44;;;;;;;6.32;4.20;;;;;;;26.85;52.49;100525.72;5052439;28;20051;-73
2022/08/16 09:07:16;;;;;;;6.88;4.18;;;;;;;26.86;52.32;100522.00;5052471;28;20527;-74
2022/08/16 09:09:46;;;;;;;6.63;3.88;;;;;;;26.88;52.28;100537.06;5052260;28;20049;-79
2022/08/16 09:12:17;;;;;;;4.90;3.95;;;;;;;26.91;52.18;100533.13;5036525;28;20435;-74
2022/08/16 09:15:07;;;;;;;9.60;4.20;;;;;;;26.93;52.38;100536.50;5053418;28;20053;-74
2022/08/16 09:17:38;;;;;;;5.60;3.72;;;;;;;26.95;51.96;100531.72;5051786;28;20519;-73
2022/08/16 09:20:19;;;;;;;5.07;4.13;;;;;;;26.97;52.16;100532.34;5053516;28;20041;-75
2022/08/16 09:22:50;;;;;;;6.60;3.80;;;;;;;26.99;52.00;100540.34;5069404;28;20504;-75
2022/08/16 09:25:25;;;;;;;4.85;3.95;;;;;;;27.00;52.02;100537.44;5052532;28;20068;-75
2022/08/16 09:28:08;;;;;;;9.98;4.45;;;;;;;27.03;51.88;100541.66;5072042;28;20056;-75
2022/08/16 09:30:47;;;;;;;7.72;4.10;;;;;;;27.04;52.53;100530.56;5057428;28;20055;-75
2022/08/16 09:33:18;;;;;;;5.32;3.70;;;;;;;27.05;52.34;100540.41;5056276;28;20052;-75
2022/08/16 09:35:48;;;;;;;7.25;4.65;;;;;;;27.07;52.11;100540.22;5053393;28;20049;-75
2022/08/16 09:38:23;;;;;;;7.68;4.57;;;;;;;27.07;52.11;100541.06;5053116;28;20473;-76
2022/08/16 09:41:04;;;;;;;6.75;3.78;;;;;;;27.06;52.35;100536.69;5036219;28;20060;-76
2022/08/16 09:43:42;;;;;;;6.03;3.63;;;;;;;27.07;51.99;100535.63;5033317;28;20053;-73
2022/08/16 09:46:27;;;;;;;9.75;4.22;;;;;;;27.07;52.06;100534.81;5032338;28;20056;-76
2022/08/16 09:49:16;;;;;;;6.88;4.13;;;;;;;27.07;51.83;100532.09;5033084;28;20045;-76
2022/08/16 09:51:52;;;;;;;7.68;4.07;;;;;;;27.08;51.67;100540.03;5033378;28;20049;-76
2022/08/16 09:54:24;;;;;;;9.38;4.10;;;;;;;27.08;51.96;100534.59;5033248;28;20060;-76
2022/08/16 09:57:00;;;;;;;4.30;3.60;;;;;;;27.08;52.01;100540.03;5033368;28;20056;-76
2022/08/16 09:59:27;;;;;;;9.68;4.25;;;;;;;27.09;51.98;100547.16;5033397;28;20041;-76
2022/08/16 10:01:57;;;;;;;8.48;4.30;;;;;;;27.09;52.09;100546.31;5031568;28;20054;-76
2022/08/16 10:04:25;;;;;;;6.38;4.30;;;;;;;27.09;51.86;100544.44;5038030;28;20523;-76
2022/08/16 10:06:59;;;;;;;5.95;4.68;;;;;;;27.11;51.90;100550.56;5073537;28;20500;-76
2022/08/16 10:09:32;;;;;;;7.50;4.15;;;;;;;27.11;52.02;100547.00;5071797;28;20049;-76
2022/08/16 10:15:14;;;;;;;7.95;4.82;;;;;;;27.21;51.90;100538.53;5051254;28;20053;-76
2022/08/16 10:17:45;;;;;;;8.15;4.60;;;;;;;27.26;51.75;100546.94;5052568;28;20064;-76
2022/08/16 10:20:35;;;;;;;6.82;4.18;;;;;;;27.28;52.06;100547.63;5052758;28;20513;-75
2022/08/16 10:23:07;;;;;;;7.00;4.10;;;;;;;27.27;52.30;100541.34;5051885;28;20498;-75
2022/08/16 10:25:39;;;;;;;8.95;4.93;;;;;;;27.27;52.03;100537.78;5053524;28;20049;-75
2022/08/16 10:28:28;;;;;;;6.40;4.43;;;;;;;27.27;51.99;100526.91;5052729;28;20053;-76
2022/08/16 10:31:08;;;;;;;7.07;4.60;;;;;;;27.29;52.22;100530.28;5052035;28;20397;-75
2022/08/16 10:33:40;;;;;;;7.75;4.47;;;;;;;27.29;52.10;100525.66;5039171;28;20056;-73
2022/08/16 10:36:12;;;;;;;8.43;4.72;;;;;;;27.29;52.30;100538.44;5043418;28;20045;-75
2022/08/16 10:39:00;;;;;;;9.52;5.10;;;;;;;27.31;52.30;100523.63;5050071;28;20037;-74
2022/08/16 10:41:28;;;;;;;7.22;4.47;;;;;;;27.33;52.38;100520.69;5032837;28;20053;-74
2022/08/16 10:43:57;;;;;;;7.63;4.80;;;;;;;27.34;52.45;100527.81;5042418;28;20511;-75
2022/08/16 10:46:24;;;;;;;6.18;4.68;;;;;;;27.35;52.02;100529.53;5052905;28;20045;-75
2022/08/16 10:49:12;;;;;;;6.05;4.07;;;;;;;27.36;51.82;100523.03;5052779;28;20055;-76
2022/08/16 10:51:44;;;;;;;7.45;4.55;;;;;;;27.36;51.64;100526.59;5052808;28;20049;-74
2022/08/16 10:54:32;;;;;;;7.68;4.40;;;;;;;27.38;51.67;100529.13;5052896;28;20404;-74
2022/08/16 10:57:19;;;;;;;8.20;5.00;;;;;;;27.39;51.79;100532.66;5032598;28;20382;-75
2022/08/16 10:59:52;;;;;;;7.13;4.55;;;;;;;27.42;51.56;100524.13;5034150;28;20046;-76
2022/08/16 11:02:24;;;;;;;7.05;4.70;;;;;;;27.45;51.19;100534.63;5036772;28;20056;-76
2022/08/16 11:05:15;;;;;;;8.07;4.65;;;;;;;27.48;51.46;100535.09;5035207;28;20054;-75
2022/08/16 11:07:46;;;;;;;7.35;4.63;;;;;;;27.47;51.20;100527.13;5036457;28;20045;-75
2022/08/16 11:10:26;;;;;;;6.95;3.92;;;;;;;27.47;52.22;100532.56;5036426;28;20048;-75
2022/08/16 11:13:18;;;;;;;9.48;4.63;;;;;;;27.48;51.87;100529.66;5036004;28;20397;-75
2022/08/16 11:16:05;;;;;;;6.70;4.47;;;;;;;27.49;51.98;100525.06;5035856;28;20049;-75
2022/08/16 11:18:55;;;;;;;9.35;4.40;;;;;;;27.51;51.96;100523.00;5036228;28;20052;-75
2022/08/16 11:21:41;;;;;;;8.50;4.45;;;;;;;27.53;51.79;100524.47;5035435;28;20041;-74
2022/08/16 11:24:29;;;;;;;7.05;4.10;;;;;;;27.54;52.12;100522.59;5050397;28;20052;-74
2022/08/16 11:27:08;;;;;;;6.68;4.20;;;;;;;27.56;51.87;100520.53;5048873;28;20048;-74
2022/08/16 11:29:56;;;;;;;6.88;4.15;;;;;;;27.56;51.90;100515.94;5074200;28;20055;-74
2022/08/16 11:32:25;;;;;;;7.05;3.92;;;;;;;27.55;51.92;100514.25;5060057;28;20037;-74
2022/08/16 11:35:01;;;;;;;6.18;3.58;;;;;;;27.56;51.68;100524.09;5055758;28;20056;-76
2022/08/16 11:37:42;;;;;;;;;;;;;;;27.58;51.65;100518.44;5056136;28;20056;-76
2022/08/16 11:40:37;;;;;;;6.22;3.50;;;;;;;27.57;51.82;100514.88;5078338;28;19979;-75
2022/08/16 11:43:05;;;;;;;7.80;3.88;;;;;;;27.57;51.31;100506.72;5051885;28;20174;-73
2022/08/16 11:45:36;;;;;;;5.95;4.03;;;;;;;27.59;51.62;100509.28;5035789;28;20045;-74
2022/08/16 11:48:04;;;;;;;7.97;4.00;;;;;;;27.59;51.84;100509.28;5035544;28;20041;-77
2022/08/16 11:50:32;;;;;;;6.57;4.18;;;;;;;27.60;52.11;100508.22;5035551;28;20045;-75
2022/08/16 11:53:01;;;;;;;8.07;3.88;;;;;;;27.61;51.89;100509.91;5035927;28;20042;-77
2022/08/16 11:55:31;;;;;;;4.20;3.65;;;;;;;27.61;52.14;100507.19;5034313;28;20386;-74
2022/08/16 11:58:01;;;;;;;4.90;3.88;;;;;;;27.62;52.05;100508.88;5036858;28;20053;-76
2022/08/16 12:00:30;;;;;;;7.60;4.90;;;;;;;27.64;51.92;100516.84;5055491;28;20037;-74
2022/08/16 12:06:56;;;;;;;4.90;3.70;;;;;;;27.65;51.85;100515.81;5035664;28;20045;-80
2022/08/16 12:09:23;;;;;;;4.95;3.88;;;;;;;27.66;51.82;100512.03;5035160;28;20045;-77
2022/08/16 12:11:57;;;;;;;5.20;3.50;;;;;;;27.67;51.73;100508.28;5034538;28;20049;-77
2022/08/16 12:14:30;;;;;;;5.95;4.35;;;;;;;27.67;51.89;100511.00;5035312;28;20049;-76
2022/08/16 12:17:02;;;;;;;6.47;3.70;;;;;;;27.69;51.94;100517.09;5042609;28;20052;-75